Share

Cades, SC (29518)

6:39 AM EDT on April 24, 2014 (GMT -0400)
Lake City High School (KSCLAKEC2) Elev 75 ft | 33.87 °N, 79.76 °W | Change Station
Active Advisory: Flood Warning

Current weather conditions updated 3 minutes ago

Clear
Clear
51.5 °F
Feels Like 51.5 °F
N
4.0
Wind Variable Wind from NE
Sunrise 6:37 AM
Sunset 7:57 PM
Moon Waning Crescent

Today is forecast to be Cooler than yesterday.

Pressure 30.04 in
Visibility 10.0 miles
Clouds Clear
Dew Point 1 °F
Humidity 12%
Rainfall 0.00 in
Snow Depth Not available.
UV 0 out of 16
Pollen 8.80 out of 12
Air Quality Not available.
Flu Activity Local Activity
METAR KCKI 241035Z AUTO 03004KT 10SM CLR 12/05 A3004 RMK AO2

More Conditions Fewer Conditions

Pressure 30.04 in
Visibility 10.0 miles
Clouds Clear
Dew Point 1 °F
Humidity 12%
Rainfall 0.00 in
Snow Depth Not available.
UV 0 out of 16
Pollen 8.80 out of 12
Air Quality Not available.
Flu Activity Local Activity
METAR KCKI 241035Z AUTO 03004KT 10SM CLR 12/05 A3004 RMK AO2

More Conditions Fewer Conditions

10-Day Weather Forecast

Almanac

Astronomy

Apr. 24, 2014 Rise Set
Actual Time 6:37 AM EDT 7:57 PM EDT
Civil Twilight 6:11 AM EDT 8:23 PM EDT
Nautical Twilight 5:40 AM EDT 8:54 PM EDT
Astronomical Twilight 5:08 AM EDT 9:27 PM EDT
Moon 3:33 AM EDT 3:24 PM EDT
Length of Visible Light 14h 11m
Length of Day
13h 19m
Tomorrow will be 1m 53s longer.
Waning Crescent, 27% of the Moon is Illuminated
Today
Waning Crescent
Apr 29
New
May 6
First Quarter
May 14
Full
May 21
Last Quarter

Today's Extremes

State Highs State Lows

Community

  • Stacked
    Stacked
  • clouds approaching Red Sox Nation
    clouds approaching Red Sox Nation
  • Balance
    Balance
  • Nestled In
    Nestled In
  • Stunning Sunrise
    Stunning Sunrise

WunderPhotos

Upload Photos

1,704,584 photos uploaded!

WunderBlogs® & News

Nearby

Snow Depth

Station Depth Elevation
No new snow has been reported.

Coastal Water Temperatures

Place Temperature
No Stations Reporting

Earthquake Activity

City Distance Mag. Time & Date
No recent earthquake activity has been reported nearby.
Minimum magnitude displayed is 2.5.

Nearby Weather Stations

Station Location Temp. Windchill Dew Point Humidity Wind Precip. Elev Updated Type
Lake City High School, Lake City, SC 51.5 °F - 1 °F 12% NE  at  4.0 mph 0.00 in / hr 75 ft 6:36 AM AST Normal
The Abbeys, Florence, SC 46.6 °F 47 °F 42 °F 85% West  at  0.0 mph - / hr 138 ft 6:32 AM EDT Normal
Savannah Grove, Effingham, SC 48.9 °F 49 °F 38 °F 67% NNE  at  1.1 mph - / hr 138 ft 6:33 AM EDT Normal

Show More Stations Show Fewer Stations

What do you think?

We're not finished. Please let us know what you like, what you don't like, and what you are still missing.